Time;durP1;ratioP1;P1;durP2;ratioP2;P2;SDS_P1;SDS_P2;PMS_P1;PMS_P2;Temp;Humidity;BMP_temperature;BMP_pressure;BME280_temperature;BME280_humidity;BME280_pressure;Samples;Min_cycle;Max_cycle;Signal;HPM_P1;HPM_P2
2021/07/03 00:02:00;;;;;;;7.47;5.57;;;16.70;99.90;;;;;;5096052;28;20173;-78
2021/07/03 00:04:26;;;;;;;6.73;6.10;;;16.60;99.90;;;;;;5095699;28;20624;-78
2021/07/03 00:06:52;;;;;;;6.03;5.53;;;16.60;99.90;;;;;;5096059;28;20174;-77
2021/07/03 00:09:18;;;;;;;9.83;6.00;;;16.60;99.90;;;;;;5095703;28;20212;-78
2021/07/03 00:11:44;;;;;;;5.80;5.30;;;16.50;99.90;;;;;;5095667;28;20656;-78
2021/07/03 00:14:10;;;;;;;6.33;5.80;;;16.60;99.90;;;;;;5095896;28;20207;-78
2021/07/03 00:16:37;;;;;;;5.93;5.33;;;16.60;99.90;;;;;;5077222;28;20711;-78
2021/07/03 00:19:03;;;;;;;6.27;5.40;;;16.60;99.90;;;;;;5086962;28;20691;-80
2021/07/03 00:21:29;;;;;;;6.73;5.87;;;16.60;99.90;;;;;;5097810;28;20314;-78
2021/07/03 00:23:55;;;;;;;6.73;6.07;;;16.70;99.90;;;;;;5115932;28;20601;-79
2021/07/03 00:26:20;;;;;;;6.10;5.60;;;16.60;99.90;;;;;;5116316;28;20187;-79
2021/07/03 00:28:46;;;;;;;7.27;6.23;;;16.60;99.90;;;;;;5115547;28;20228;-79
2021/07/03 00:31:12;;;;;;;6.40;5.83;;;16.70;99.90;;;;;;5097328;28;20181;-79
2021/07/03 00:33:37;;;;;;;6.87;6.17;;;16.60;99.90;;;;;;5115378;28;20290;-78
2021/07/03 00:36:03;;;;;;;6.50;5.87;;;16.60;99.90;;;;;;5116228;28;20714;-79
2021/07/03 00:38:29;;;;;;;6.37;5.73;;;16.50;99.90;;;;;;5116464;28;20686;-79
2021/07/03 00:40:55;;;;;;;6.27;5.67;;;16.50;99.90;;;;;;5083671;28;20178;-79
2021/07/03 00:43:20;;;;;;;6.20;5.57;;;16.50;99.90;;;;;;5097676;28;20266;-78
2021/07/03 00:45:46;;;;;;;6.40;5.80;;;16.60;99.90;;;;;;5115528;28;20182;-78
2021/07/03 00:48:12;;;;;;;6.93;6.27;;;16.50;99.90;;;;;;5115476;28;20200;-79
2021/07/03 00:50:38;;;;;;;6.80;6.20;;;16.60;99.90;;;;;;5114870;28;20189;-78
2021/07/03 00:53:04;;;;;;;6.33;5.73;;;16.60;99.90;;;;;;5097852;28;20208;-79
2021/07/03 00:55:30;;;;;;;6.67;5.70;;;16.60;99.90;;;;;;5115748;28;20180;-79
2021/07/03 00:57:56;;;;;;;6.63;5.77;;;16.60;99.90;;;;;;5115376;28;20189;-79
2021/07/03 01:00:22;;;;;;;6.23;5.73;;;16.50;99.90;;;;;;5106000;28;20176;-79
2021/07/03 01:02:48;;;;;;;6.23;5.73;;;16.50;99.90;;;;;;5111471;28;20190;-78
2021/07/03 01:05:15;;;;;;;6.47;5.73;;;16.50;99.90;;;;;;5115744;28;20176;-78
2021/07/03 01:07:41;;;;;;;6.70;6.10;;;16.50;99.90;;;;;;5114533;28;20196;-77
2021/07/03 01:10:21;;;;;;;6.00;5.53;;;16.50;99.90;;;;;;5096940;28;20175;-77
2021/07/03 01:12:47;;;;;;;6.57;5.97;;;16.50;99.90;;;;;;5115528;28;20200;-78
2021/07/03 01:15:13;;;;;;;6.40;5.80;;;16.50;99.90;;;;;;5115362;28;20190;-78
2021/07/03 01:17:39;;;;;;;6.20;5.70;;;16.50;99.90;;;;;;5096587;28;20645;-78
2021/07/03 01:20:06;;;;;;;6.87;6.20;;;16.40;99.90;;;;;;5115088;28;20657;-78
2021/07/03 01:22:33;;;;;;;6.63;6.03;;;16.30;99.90;;;;;;5115147;28;20200;-78
2021/07/03 01:24:59;;;;;;;12.13;6.40;;;16.30;99.90;;;;;;5115341;28;20722;-78
2021/07/03 01:27:25;;;;;;;6.63;6.03;;;16.30;99.90;;;;;;5115042;28;20259;-78
2021/07/03 01:29:50;;;;;;;6.87;6.17;;;16.30;99.90;;;;;;5115246;28;20207;-78
2021/07/03 01:32:16;;;;;;;6.20;5.70;;;16.30;99.90;;;;;;5114846;28;20234;-79
2021/07/03 01:34:43;;;;;;;7.67;6.00;;;16.20;99.90;;;;;;5097259;28;20336;-79
2021/07/03 01:37:08;;;;;;;7.33;6.60;;;16.20;99.90;;;;;;5114792;28;20176;-78
2021/07/03 01:39:34;;;;;;;6.37;5.73;;;16.10;99.90;;;;;;5112771;28;20187;-79
2021/07/03 01:42:01;;;;;;;6.57;6.07;;;16.10;99.90;;;;;;5113548;28;20192;-78
2021/07/03 01:44:29;;;;;;;6.63;6.13;;;16.10;99.90;;;;;;5096311;28;20179;-78
2021/07/03 01:46:58;;;;;;;7.03;6.43;;;16.00;99.90;;;;;;5108056;28;20195;-79
2021/07/03 01:49:25;;;;;;;6.83;6.20;;;16.00;99.90;;;;;;5106369;28;20205;-80
2021/07/03 01:51:51;;;;;;;6.70;5.93;;;15.90;99.90;;;;;;5106367;28;20661;-80
2021/07/03 01:54:17;;;;;;;6.53;5.93;;;15.90;99.90;;;;;;5104312;28;20208;-78
2021/07/03 01:56:45;;;;;;;7.07;6.47;;;15.80;99.90;;;;;;5092073;28;20183;-79
2021/07/03 01:59:12;;;;;;;6.37;5.87;;;15.80;99.90;;;;;;5104386;28;20573;-79
2021/07/03 02:01:38;;;;;;;6.70;6.10;;;15.80;99.90;;;;;;5107785;28;20183;-79
2021/07/03 02:04:04;;;;;;;7.13;6.43;;;15.70;99.90;;;;;;5095045;28;20191;-80
2021/07/03 02:06:30;;;;;;;6.40;5.83;;;15.70;99.90;;;;;;5112916;28;20184;-81
2021/07/03 02:08:56;;;;;;;6.40;5.87;;;15.70;99.90;;;;;;5115373;28;20204;-79
2021/07/03 02:11:22;;;;;;;6.63;6.10;;;15.60;99.90;;;;;;5092151;28;20605;-78
2021/07/03 02:13:48;;;;;;;6.83;6.23;;;15.60;99.90;;;;;;5105130;28;20229;-79
2021/07/03 02:16:14;;;;;;;7.10;6.33;;;15.60;99.90;;;;;;5116874;28;20180;-79
2021/07/03 02:18:40;;;;;;;6.53;6.03;;;;;;;;;;5098545;28;20203;-78
2021/07/03 02:21:05;;;;;;;7.30;6.50;;;15.50;99.90;;;;;;5117123;28;20916;-79
2021/07/03 02:23:31;;;;;;;8.23;6.83;;;15.50;99.90;;;;;;5097836;28;20187;-79
2021/07/03 02:25:57;;;;;;;6.67;6.17;;;15.50;99.90;;;;;;5116090;28;20184;-79
2021/07/03 02:28:22;;;;;;;7.37;6.67;;;15.60;99.90;;;;;;5112724;28;20599;-79
2021/07/03 02:30:48;;;;;;;7.00;6.30;;;15.60;99.90;;;;;;5117009;28;20188;-79
2021/07/03 02:33:14;;;;;;;7.63;7.00;;;15.60;99.90;;;;;;5117216;28;20256;-78
2021/07/03 02:35:40;;;;;;;6.87;6.17;;;15.60;99.90;;;;;;5116855;28;20211;-79
2021/07/03 02:38:05;;;;;;;7.00;6.40;;;15.60;99.90;;;;;;5115625;28;20202;-79
2021/07/03 02:40:31;;;;;;;7.33;6.27;;;15.60;99.90;;;;;;5115448;28;20178;-79
2021/07/03 02:42:57;;;;;;;6.40;5.80;;;15.60;99.90;;;;;;5116332;28;20175;-78
2021/07/03 02:45:23;;;;;;;6.70;6.10;;;15.50;99.90;;;;;;5116893;28;20229;-79
2021/07/03 02:47:49;;;;;;;7.97;7.27;;;15.40;99.90;;;;;;5111288;28;20201;-79
2021/07/03 02:50:19;;;;;;;7.73;7.13;;;15.20;99.90;;;;;;5106261;28;20327;-79
2021/07/03 02:52:44;;;;;;;11.30;6.87;;;15.20;99.90;;;;;;5114733;28;20190;-79
2021/07/03 02:55:11;;;;;;;11.00;7.33;;;15.10;99.90;;;;;;5115959;28;20179;-79
2021/07/03 02:57:37;;;;;;;8.87;6.77;;;15.10;99.90;;;;;;5097028;28;20219;-79
2021/07/03 03:00:07;;;;;;;12.50;6.87;;;15.00;99.90;;;;;;5089978;28;20655;-80
2021/07/03 03:02:32;;;;;;;7.87;7.07;;;15.10;99.90;;;;;;5109256;28;20228;-79
2021/07/03 03:04:58;;;;;;;8.23;6.40;;;14.80;99.90;;;;;;5097023;28;20262;-79
2021/07/03 03:07:23;;;;;;;7.70;7.10;;;14.70;99.90;;;;;;5097125;28;20552;-78
2021/07/03 03:09:49;;;;;;;7.47;6.77;;;14.80;99.90;;;;;;5111665;28;20182;-80
2021/07/03 03:12:15;;;;;;;10.93;7.47;;;14.80;99.90;;;;;;5095157;28;20195;-79
2021/07/03 03:14:40;;;;;;;8.30;7.47;;;14.90;99.90;;;;;;5104923;28;20549;-79
2021/07/03 03:17:06;;;;;;;7.77;7.17;;;14.80;99.90;;;;;;5115150;28;20260;-80
2021/07/03 03:19:32;;;;;;;7.20;6.60;;;14.90;99.90;;;;;;5115257;28;20260;-80
2021/07/03 03:21:57;;;;;;;7.37;6.53;;;14.90;99.90;;;;;;5116090;28;20168;-79
2021/07/03 03:24:23;;;;;;;7.50;6.77;;;14.90;99.90;;;;;;5115986;28;20198;-79
2021/07/03 03:26:48;;;;;;;7.57;6.87;;;14.90;99.90;;;;;;5097960;28;20205;-79
2021/07/03 03:29:14;;;;;;;7.67;6.77;;;14.80;99.90;;;;;;5115862;28;20287;-78
2021/07/03 03:31:40;;;;;;;7.80;7.03;;;14.80;99.90;;;;;;5097373;28;20205;-78
2021/07/03 03:34:05;;;;;;;7.07;6.37;;;14.70;99.90;;;;;;5096669;28;20200;-79
2021/07/03 03:36:31;;;;;;;7.63;7.00;;;14.70;99.90;;;;;;5087365;28;20172;-79
2021/07/03 03:38:57;;;;;;;7.53;6.90;;;14.70;99.90;;;;;;5078943;28;20254;-78
2021/07/03 03:41:22;;;;;;;7.57;6.83;;;14.70;99.90;;;;;;5098574;28;20546;-79
2021/07/03 03:43:48;;;;;;;7.07;6.47;;;14.70;99.90;;;;;;5115676;28;20180;-79
2021/07/03 03:46:14;;;;;;;8.23;7.20;;;14.70;99.90;;;;;;5102051;28;20597;-80
2021/07/03 03:48:40;;;;;;;10.90;6.60;;;14.70;99.90;;;;;;5097626;28;20214;-79
2021/07/03 03:51:05;;;;;;;7.60;6.90;;;14.60;99.90;;;;;;5096588;28;20176;-79
2021/07/03 03:53:31;;;;;;;7.27;6.67;;;14.60;99.90;;;;;;5096756;28;20203;-80
2021/07/03 03:55:57;;;;;;;8.47;7.10;;;14.60;99.90;;;;;;5115109;28;20209;-79
2021/07/03 03:58:22;;;;;;;7.67;7.00;;;14.60;99.90;;;;;;5114628;28;20211;-79
2021/07/03 04:00:48;;;;;;;7.80;7.00;;;14.60;99.90;;;;;;5093365;28;20184;-79
2021/07/03 04:03:14;;;;;;;7.50;6.90;;;14.60;99.90;;;;;;5114527;28;20193;-80
2021/07/03 04:05:39;;;;;;;7.57;6.83;;;14.50;99.90;;;;;;5091514;28;20181;-79
2021/07/03 04:08:05;;;;;;;10.23;7.50;;;14.50;99.90;;;;;;5094722;28;20721;-79
2021/07/03 04:10:31;;;;;;;7.83;7.23;;;14.50;99.90;;;;;;5094975;28;20943;-79
2021/07/03 04:12:57;;;;;;;8.00;7.30;;;14.50;99.90;;;;;;5095859;28;20199;-79
2021/07/03 04:15:23;;;;;;;7.57;6.97;;;14.50;99.90;;;;;;5095256;28;20180;-79
2021/07/03 04:17:48;;;;;;;8.03;7.20;;;14.60;99.90;;;;;;5114296;28;20218;-79
2021/07/03 04:20:14;;;;;;;7.63;6.93;;;14.60;99.90;;;;;;5114174;28;20184;-79
2021/07/03 04:22:40;;;;;;;7.47;6.87;;;14.60;99.90;;;;;;5106971;28;20216;-79
2021/07/03 04:25:09;;;;;;;8.53;7.73;;;14.60;99.90;;;;;;5092912;28;20208;-79
2021/07/03 04:27:35;;;;;;;8.00;7.30;;;14.70;99.90;;;;;;5114641;28;20354;-79
2021/07/03 04:30:03;;;;;;;7.83;7.03;;;14.70;99.90;;;;;;5096088;28;20175;-79
2021/07/03 04:32:29;;;;;;;7.80;7.10;;;14.70;99.90;;;;;;5113207;28;20187;-79
2021/07/03 04:34:54;;;;;;;7.90;7.10;;;14.80;99.90;;;;;;5094667;28;20223;-79
2021/07/03 04:37:20;;;;;;;10.37;7.50;;;14.90;99.90;;;;;;5105906;28;20189;-79
2021/07/03 04:39:46;;;;;;;9.63;7.27;;;15.00;99.90;;;;;;5100202;28;20180;-80
2021/07/03 04:42:11;;;;;;;7.57;6.77;;;15.10;99.90;;;;;;5101174;28;20199;-80
2021/07/03 04:44:37;;;;;;;7.90;7.20;;;15.10;99.90;;;;;;5114047;28;20191;-80
2021/07/03 04:47:03;;;;;;;8.00;7.20;;;15.10;99.90;;;;;;5102558;28;20190;-80
2021/07/03 04:49:32;;;;;;;8.70;7.90;;;15.30;99.90;;;;;;5112750;28;20204;-79
2021/07/03 04:51:58;;;;;;;8.10;7.30;;;15.40;99.90;;;;;;5114812;28;20248;-79
2021/07/03 04:54:24;;;;;;;7.50;6.90;;;15.40;99.90;;;;;;5114405;28;20265;-79
2021/07/03 04:56:50;;;;;;;9.37;7.27;;;15.60;99.90;;;;;;5103925;28;20192;-80
2021/07/03 04:59:15;;;;;;;7.50;6.80;;;15.70;99.90;;;;;;5095173;28;20245;-79
2021/07/03 05:01:41;;;;;;;7.20;6.50;;;15.80;99.90;;;;;;5096431;28;20244;-79
2021/07/03 05:04:07;;;;;;;7.40;6.70;;;15.90;99.90;;;;;;5101604;28;20195;-79
2021/07/03 05:06:32;;;;;;;7.60;7.00;;;16.00;99.90;;;;;;5113231;28;20210;-80
2021/07/03 05:08:58;;;;;;;7.50;6.80;;;16.00;99.90;;;;;;5114224;28;20637;-79
2021/07/03 05:11:24;;;;;;;7.10;6.40;;;16.00;99.90;;;;;;5100585;28;20265;-79
2021/07/03 05:13:49;;;;;;;7.07;6.47;;;16.10;99.90;;;;;;5107586;28;20286;-80
2021/07/03 05:16:15;;;;;;;7.10;6.50;;;16.30;99.90;;;;;;5107405;28;20213;-79
2021/07/03 05:18:41;;;;;;;6.87;6.27;;;16.40;99.90;;;;;;5115314;28;20201;-79
2021/07/03 05:21:06;;;;;;;6.87;6.20;;;16.40;99.90;;;;;;5107326;28;20183;-78
2021/07/03 05:23:32;;;;;;;7.07;6.43;;;16.60;99.90;;;;;;5099779;28;20597;-79
2021/07/03 05:25:58;;;;;;;6.93;6.30;;;16.70;99.90;;;;;;5093884;28;20582;-79
2021/07/03 05:28:25;;;;;;;6.83;6.13;;;16.80;99.90;;;;;;5115105;28;20218;-79
2021/07/03 05:30:52;;;;;;;7.27;6.60;;;17.00;99.90;;;;;;5114952;28;20176;-79
2021/07/03 05:33:18;;;;;;;6.53;5.93;;;17.00;99.90;;;;;;5115508;28;20288;-79
2021/07/03 05:35:44;;;;;;;6.60;6.00;;;17.00;99.90;;;;;;5107281;28;20203;-78
2021/07/03 05:38:10;;;;;;;7.83;6.17;;;17.00;99.90;;;;;;5114090;28;20204;-78
2021/07/03 05:40:35;;;;;;;7.23;6.53;;;17.10;99.90;;;;;;5139132;22;20244;-73
2021/07/03 05:43:01;;;;;;;7.43;6.73;;;17.10;99.90;;;;;;5113502;28;20173;-72
2021/07/03 05:45:27;;;;;;;7.80;7.10;;;17.20;99.90;;;;;;5113410;28;20279;-73
2021/07/03 05:47:52;;;;;;;6.40;5.80;;;17.20;99.90;;;;;;5113424;28;20194;-73
2021/07/03 05:50:26;;;;;;;6.67;6.10;;;17.20;99.90;;;;;;5105310;28;20207;-74
2021/07/03 05:52:52;;;;;;;7.33;6.63;;;17.30;99.90;;;;;;5090501;28;20162;-73
2021/07/03 05:55:19;;;;;;;7.07;6.40;;;17.20;99.90;;;;;;5075274;28;20198;-73
2021/07/03 05:57:44;;;;;;;7.50;6.63;;;17.00;99.90;;;;;;5093035;28;20175;-73
2021/07/03 06:00:11;;;;;;;10.20;6.23;;;17.10;99.90;;;;;;5092883;28;20187;-73
2021/07/03 06:02:37;;;;;;;9.07;6.17;;;17.20;99.90;;;;;;5092979;28;20174;-74
2021/07/03 06:05:04;;;;;;;8.20;6.83;;;17.40;99.90;;;;;;5093110;28;20251;-73
2021/07/03 06:07:30;;;;;;;6.97;6.27;;;17.40;99.90;;;;;;5092934;28;20171;-72
2021/07/03 06:09:56;;;;;;;7.03;6.43;;;17.40;99.90;;;;;;5092755;28;20203;-72
2021/07/03 06:12:21;;;;;;;7.03;6.40;;;17.20;99.90;;;;;;5092476;28;20175;-74
2021/07/03 06:14:47;;;;;;;7.20;6.50;;;17.20;99.90;;;;;;5091077;28;20195;-74
2021/07/03 06:17:13;;;;;;;7.10;6.50;;;17.30;99.90;;;;;;5091355;28;20179;-72
2021/07/03 06:19:40;;;;;;;7.20;6.50;;;17.40;99.90;;;;;;5092372;28;20210;-73
2021/07/03 06:22:06;;;;;;;8.37;6.93;;;17.60;99.90;;;;;;5092888;28;20179;-72
2021/07/03 06:24:32;;;;;;;7.23;6.57;;;17.70;99.90;;;;;;5092800;28;20173;-72
2021/07/03 06:26:58;;;;;;;7.97;6.50;;;17.90;99.90;;;;;;5092555;28;20180;-73
2021/07/03 06:29:23;;;;;;;7.83;7.03;;;18.00;99.90;;;;;;5074460;28;20198;-72
2021/07/03 06:31:49;;;;;;;7.67;6.53;;;18.10;99.90;;;;;;5092677;28;20628;-74
2021/07/03 06:34:15;;;;;;;7.30;6.60;;;18.10;99.90;;;;;;5081433;28;20200;-74
2021/07/03 06:36:41;;;;;;;7.93;7.10;;;18.10;99.90;;;;;;5068715;28;20325;-73
2021/07/03 06:39:07;;;;;;;8.00;7.20;;;18.20;99.90;;;;;;5088907;28;20210;-72
2021/07/03 06:41:33;;;;;;;7.53;6.83;;;18.20;99.90;;;;;;5091943;28;20203;-72
2021/07/03 06:43:59;;;;;;;9.80;7.00;;;18.10;99.90;;;;;;5091839;28;20177;-72
2021/07/03 06:46:24;;;;;;;7.80;6.70;;;17.80;99.90;;;;;;5092217;28;20320;-73
2021/07/03 06:48:50;;;;;;;8.07;6.43;;;17.90;99.90;;;;;;5075459;28;20232;-74
2021/07/03 06:51:16;;;;;;;7.60;6.90;;;18.00;99.90;;;;;;5094939;28;20207;-73
2021/07/03 06:53:42;;;;;;;7.13;6.53;;;18.10;99.90;;;;;;5095417;28;20191;-73
2021/07/03 06:56:07;;;;;;;7.10;6.53;;;18.30;99.90;;;;;;5092647;28;20229;-73
2021/07/03 06:58:33;;;;;;;7.67;6.90;;;18.40;99.90;;;;;;5095571;28;20174;-72
2021/07/03 07:00:58;;;;;;;7.67;6.93;;;18.40;99.90;;;;;;5095295;28;20685;-74
2021/07/03 07:03:24;;;;;;;6.90;6.23;;;18.50;99.90;;;;;;5075412;28;20176;-73
2021/07/03 07:05:50;;;;;;;7.30;6.53;;;18.40;99.90;;;;;;5093909;28;20207;-73
2021/07/03 07:08:15;;;;;;;7.57;6.93;;;18.50;99.90;;;;;;5095259;28;20651;-73
2021/07/03 07:10:41;;;;;;;7.67;6.87;;;18.50;99.90;;;;;;5079798;28;20266;-73
2021/07/03 07:13:08;;;;;;;8.23;7.47;;;18.70;99.90;;;;;;5088368;28;20261;-71
2021/07/03 07:15:34;;;;;;;7.17;6.50;;;18.70;99.90;;;;;;5095569;28;20203;-73
2021/07/03 07:18:00;;;;;;;7.30;6.70;;;18.90;99.90;;;;;;5075615;28;20267;-77
2021/07/03 07:20:26;;;;;;;7.20;6.60;;;19.00;99.90;;;;;;5094322;28;20705;-80
2021/07/03 07:22:52;;;;;;;7.90;6.60;;;19.10;99.90;;;;;;5092093;28;20169;-79
2021/07/03 07:25:17;;;;;;;7.63;6.93;;;19.20;99.90;;;;;;5094112;28;20172;-77
2021/07/03 07:27:43;;;;;;;9.43;6.77;;;19.30;99.90;;;;;;5095772;28;20171;-78
2021/07/03 07:30:10;;;;;;;8.97;6.67;;;19.30;99.90;;;;;;5095352;28;20257;-77
2021/07/03 07:32:35;;;;;;;7.00;6.37;;;19.30;99.90;;;;;;5095153;28;20180;-78
2021/07/03 07:35:01;;;;;;;6.57;5.90;;;19.50;99.90;;;;;;5095534;28;20635;-77
2021/07/03 07:37:27;;;;;;;7.80;6.20;;;19.60;99.90;;;;;;5077488;28;20169;-76
2021/07/03 07:39:53;;;;;;;7.90;6.43;;;19.70;99.90;;;;;;5095234;28;20203;-77
2021/07/03 07:42:19;;;;;;;6.20;5.60;;;19.70;99.90;;;;;;5095285;28;20203;-77
2021/07/03 07:44:45;;;;;;;5.90;5.40;;;19.90;99.90;;;;;;5077268;28;20223;-77
2021/07/03 07:47:11;;;;;;;6.33;5.63;;;20.10;99.90;;;;;;5095618;28;20259;-77
2021/07/03 07:49:36;;;;;;;5.87;5.33;;;20.20;99.90;;;;;;5077137;28;20614;-77
2021/07/03 07:52:02;;;;;;;5.67;5.17;;;20.30;99.90;;;;;;5077010;28;20180;-77
2021/07/03 07:54:28;;;;;;;5.97;5.47;;;20.40;99.90;;;;;;5095287;28;20215;-77
2021/07/03 07:56:54;;;;;;;6.33;5.40;;;20.30;99.90;;;;;;5095352;28;20670;-77
2021/07/03 07:59:19;;;;;;;5.70;5.20;;;20.40;99.90;;;;;;5095936;28;20165;-78
2021/07/03 08:01:45;;;;;;;6.37;5.77;;;20.50;99.90;;;;;;5095157;28;20690;-78
2021/07/03 08:04:11;;;;;;;5.63;5.20;;;20.70;99.90;;;;;;5078115;28;20623;-77
2021/07/03 08:06:36;;;;;;;5.77;5.37;;;20.90;99.90;;;;;;5077669;28;20185;-77
2021/07/03 08:09:02;;;;;;;6.27;5.67;;;20.80;99.90;;;;;;5095719;28;20179;-78
2021/07/03 08:11:28;;;;;;;5.67;5.13;;;20.70;99.90;;;;;;5076916;28;20192;-78
2021/07/03 08:13:54;;;;;;;6.10;5.60;;;20.80;99.90;;;;;;5095194;28;20188;-78
2021/07/03 08:16:19;;;;;;;5.90;5.30;;;20.80;99.90;;;;;;5095337;28;20175;-78
2021/07/03 08:18:45;;;;;;;6.37;5.80;;;21.00;99.90;;;;;;5077120;28;20168;-78
2021/07/03 08:21:11;;;;;;;6.43;5.83;;;21.00;99.90;;;;;;5094955;28;20199;-78
2021/07/03 08:23:36;;;;;;;5.87;5.37;;;21.10;99.90;;;;;;5076826;28;20169;-78
2021/07/03 08:26:02;;;;;;;5.80;5.20;;;21.10;99.90;;;;;;5076853;28;20207;-77
2021/07/03 08:28:28;;;;;;;6.40;5.80;;;21.20;99.90;;;;;;5077385;28;20172;-78
2021/07/03 08:30:53;;;;;;;5.63;5.17;;;21.40;99.90;;;;;;5094729;28;20203;-78
2021/07/03 08:33:19;;;;;;;8.13;5.87;;;21.50;99.90;;;;;;5067710;28;20254;-78
2021/07/03 08:35:45;;;;;;;7.27;5.40;;;21.60;99.90;;;;;;5095129;28;20251;-79
2021/07/03 08:38:10;;;;;;;7.27;5.53;;;21.70;99.90;;;;;;5088656;28;20192;-78
2021/07/03 08:40:36;;;;;;;6.47;5.43;;;21.90;99.90;;;;;;5074730;28;20289;-78
2021/07/03 08:43:02;;;;;;;7.70;5.17;;;22.00;99.90;;;;;;5056140;28;20177;-77
2021/07/03 08:45:28;;;;;;;5.57;5.17;;;21.80;99.90;;;;;;5074137;28;20665;-78
2021/07/03 08:47:53;;;;;;;6.10;5.20;;;21.80;99.90;;;;;;5056368;28;20173;-77
2021/07/03 08:50:19;;;;;;;6.20;5.33;;;21.90;99.90;;;;;;5074140;28;20674;-78
2021/07/03 08:52:46;;;;;;;6.27;5.70;;;22.10;99.90;;;;;;5074697;28;20635;-79
2021/07/03 08:55:20;;;;;;;5.30;4.80;;;22.20;99.90;;;;;;5073698;28;20169;-77
2021/07/03 08:57:50;;;;;;;5.33;4.83;;;22.30;99.90;;;;;;5056421;28;20175;-78
2021/07/03 09:00:43;;;;;;;5.63;5.13;;;22.40;99.90;;;;;;5076331;28;20193;-77
2021/07/03 09:03:14;;;;;;;12.70;5.10;;;22.50;99.90;;;;;;5064725;28;20184;-78
2021/07/03 09:05:42;;;;;;;5.70;5.20;;;22.70;99.90;;;;;;5094477;28;20261;-78
2021/07/03 09:08:10;;;;;;;6.13;5.10;;;22.70;99.90;;;;;;5076453;28;20268;-78
2021/07/03 09:10:38;;;;;;;5.33;4.93;;;22.80;99.90;;;;;;5075676;28;20200;-78
2021/07/03 09:13:05;;;;;;;6.73;5.10;;;22.80;99.90;;;;;;5076096;28;20673;-78
2021/07/03 09:15:33;;;;;;;5.17;4.63;;;22.90;99.90;;;;;;5098014;28;20170;-78
2021/07/03 09:18:01;;;;;;;5.67;5.13;;;23.10;99.90;;;;;;5094050;28;20171;-77
2021/07/03 09:20:28;;;;;;;5.87;5.37;;;23.10;99.90;;;;;;5075963;28;20200;-79
2021/07/03 09:23:07;;;;;;;5.70;5.20;;;23.10;99.90;;;;;;5076044;28;20169;-78
2021/07/03 09:25:33;;;;;;;5.17;4.77;;;23.30;99.90;;;;;;5094335;28;20255;-78
2021/07/03 09:28:05;;;;;;;6.00;5.40;;;23.40;99.90;;;;;;5093936;28;20243;-77
2021/07/03 09:30:32;;;;;;;5.70;5.20;;;23.60;99.90;;;;;;5094215;28;20283;-77
2021/07/03 09:32:58;;;;;;;5.30;4.80;;;23.50;99.90;;;;;;5093533;28;20161;-78
2021/07/03 09:35:24;;;;;;;5.40;4.90;;;23.50;99.90;;;;;;5094586;28;20203;-77
2021/07/03 09:37:49;;;;;;;5.33;4.93;;;23.60;99.90;;;;;;5094063;28;20203;-77
2021/07/03 09:40:16;;;;;;;4.87;4.43;;;23.60;99.90;;;;;;5094185;28;20274;-77
2021/07/03 09:42:42;;;;;;;5.07;4.57;;;23.70;99.90;;;;;;5093714;28;20168;-77
2021/07/03 09:45:09;;;;;;;3.97;3.67;;;23.60;99.90;;;;;;5093893;28;20255;-77
2021/07/03 09:47:35;;;;;;;4.87;4.33;;;23.70;99.90;;;;;;5075702;28;20176;-77
2021/07/03 09:50:11;;;;;;;4.63;4.23;;;23.80;99.90;;;;;;5093548;28;20196;-77
2021/07/03 09:52:37;;;;;;;4.30;4.00;;;23.80;99.90;;;;;;5093537;28;20182;-77
2021/07/03 09:55:08;;;;;;;4.20;3.80;;;23.90;99.90;;;;;;5093399;28;20254;-77
2021/07/03 09:57:39;;;;;;;4.03;3.73;;;23.90;99.90;;;;;;5094063;28;20525;-77
2021/07/03 10:00:07;;;;;;;4.63;3.90;;;23.90;99.90;;;;;;5075498;28;20291;-78
2021/07/03 10:02:34;;;;;;;4.30;4.00;;;23.90;99.90;;;;;;5093367;28;20226;-78
2021/07/03 10:04:59;;;;;;;4.23;3.83;;;23.70;99.90;;;;;;5093574;28;20313;-77
2021/07/03 10:07:35;;;;;;;4.37;3.97;;;23.80;99.90;;;;;;5074525;28;20659;-77
2021/07/03 10:10:06;;;;;;;4.53;4.13;;;24.00;99.90;;;;;;5073828;28;20227;-78
2021/07/03 10:12:36;;;;;;;4.17;3.77;;;24.10;99.90;;;;;;5078455;28;20613;-77
2021/07/03 10:15:02;;;;;;;3.53;3.30;;;24.20;99.90;;;;;;5056145;28;20197;-77
2021/07/03 10:17:30;;;;;;;3.00;2.80;;;24.10;99.90;;;;;;5091313;28;20590;-78
2021/07/03 10:19:58;;;;;;;4.30;3.53;;;24.10;99.90;;;;;;5093847;28;20591;-78
2021/07/03 10:22:26;;;;;;;5.17;3.20;;;24.20;99.90;;;;;;5093099;28;20253;-78
2021/07/03 10:24:57;;;;;;;3.93;3.33;;;24.30;99.90;;;;;;5097388;28;20232;-78
2021/07/03 10:27:29;;;;;;;3.47;3.17;;;24.50;99.90;;;;;;5097525;28;20180;-78
2021/07/03 10:30:00;;;;;;;3.40;3.10;;;24.50;99.90;;;;;;5097839;28;20687;-77
2021/07/03 10:32:35;;;;;;;3.87;3.57;;;24.50;99.90;;;;;;5088509;28;20238;-78
2021/07/03 10:35:18;;;;;;;3.40;3.10;;;24.60;99.90;;;;;;5097604;28;20274;-78
2021/07/03 10:37:45;;;;;;;3.50;3.20;;;24.40;99.90;;;;;;5097750;28;20175;-78
2021/07/03 10:40:24;;;;;;;3.40;3.20;;;24.30;99.90;;;;;;5097110;28;20223;-78
2021/07/03 10:42:52;;;;;;;2.93;2.73;;;24.50;99.90;;;;;;5079873;28;20218;-78
2021/07/03 10:45:23;;;;;;;3.43;3.17;;;24.50;99.90;;;;;;5081623;28;20197;-78
2021/07/03 10:47:53;;;;;;;3.40;3.10;;;24.50;99.90;;;;;;5058993;28;20229;-78
2021/07/03 10:50:28;;;;;;;3.40;3.10;;;24.50;99.90;;;;;;5077288;28;20196;-78
2021/07/03 10:52:55;;;;;;;3.60;3.30;;;24.50;99.90;;;;;;5078845;28;20168;-77
2021/07/03 10:55:35;;;;;;;4.23;3.43;;;24.50;99.90;;;;;;5096949;28;20165;-78
2021/07/03 10:58:12;;;;;;;3.30;3.10;;;24.50;99.90;;;;;;5096968;28;20172;-78
2021/07/03 11:00:38;;;;;;;3.67;3.20;;;24.50;99.90;;;;;;5090883;28;20192;-78
2021/07/03 11:03:15;;;;;;;3.30;3.00;;;24.50;99.90;;;;;;5076511;28;20176;-78
2021/07/03 11:05:40;;;;;;;3.50;3.20;;;24.40;99.90;;;;;;5076609;28;20196;-77
2021/07/03 11:08:11;;;;;;;3.70;3.40;;;24.30;99.90;;;;;;5076214;28;20232;-77
2021/07/03 11:10:38;;;;;;;3.10;2.90;;;24.40;99.90;;;;;;5076019;28;20201;-78
2021/07/03 11:13:04;;;;;;;4.47;2.93;;;24.30;99.90;;;;;;5075578;28;20173;-77
2021/07/03 11:15:30;;;;;;;3.10;2.80;;;24.50;99.90;;;;;;5075913;28;20172;-77
2021/07/03 11:17:57;;;;;;;3.47;3.27;;;24.60;99.90;;;;;;5075702;28;20170;-77
2021/07/03 11:20:33;;;;;;;3.40;3.07;;;24.50;99.90;;;;;;5076641;28;20284;-77
2021/07/03 11:23:00;;;;;;;3.50;3.20;;;24.50;99.90;;;;;;5058562;28;20177;-74
2021/07/03 11:25:45;;;;;;;3.53;3.23;;;24.50;99.90;;;;;;5075701;28;20195;-76
2021/07/03 11:28:15;;;;;;;3.73;3.30;;;24.50;99.90;;;;;;5083820;28;20578;-78
2021/07/03 11:30:42;;;;;;;3.57;3.27;;;24.50;99.90;;;;;;5096090;28;20667;-79
2021/07/03 11:33:10;;;;;;;3.43;3.13;;;24.50;99.90;;;;;;5095603;28;20179;-78
2021/07/03 11:35:40;;;;;;;3.20;2.90;;;24.50;99.90;;;;;;5094596;28;20183;-78
2021/07/03 11:38:05;;;;;;;3.50;3.10;;;24.50;99.90;;;;;;5096054;28;20169;-78
2021/07/03 11:40:32;;;;;;;3.80;3.17;;;24.40;99.90;;;;;;5077955;28;20265;-78
2021/07/03 11:43:00;;;;;;;3.23;3.03;;;24.50;99.90;;;;;;5110572;22;20221;-80
2021/07/03 11:45:28;;;;;;;3.37;3.07;;;24.70;99.90;;;;;;5059932;28;20173;-80
2021/07/03 11:48:05;;;;;;;3.70;3.20;;;24.90;99.90;;;;;;5077829;28;20227;-80
2021/07/03 11:50:34;;;;;;;3.60;3.30;;;25.10;99.90;;;;;;5060004;28;20165;-80
2021/07/03 11:53:01;;;;;;;3.17;2.87;;;25.10;99.90;;;;;;5059273;28;20606;-80
2021/07/03 11:55:36;;;;;;;3.17;2.97;;;25.30;99.90;;;;;;5076958;28;20264;-81
2021/07/03 11:58:03;;;;;;;3.47;3.00;;;25.40;99.90;;;;;;5077578;28;20188;-80
2021/07/03 12:00:34;;;;;;;3.20;2.90;;;25.40;99.90;;;;;;5077647;28;20169;-80
2021/07/03 12:03:01;;;;;;;4.00;3.07;;;25.30;99.90;;;;;;5058895;28;20196;-81
2021/07/03 12:05:30;;;;;;;3.37;3.17;;;25.40;99.90;;;;;;5077549;28;20202;-81
2021/07/03 12:08:00;;;;;;;3.70;3.03;;;25.30;99.90;;;;;;5077299;28;20183;-81
2021/07/03 12:10:34;;;;;;;3.40;3.10;;;25.30;99.90;;;;;;5059825;28;20185;-81
2021/07/03 12:13:00;;;;;;;3.77;3.47;;;25.60;99.90;;;;;;5080869;28;20197;-80
2021/07/03 12:15:27;;;;;;;3.77;3.47;;;25.60;99.90;;;;;;5062772;28;20173;-81
2021/07/03 12:17:52;;;;;;;3.03;2.83;;;25.60;99.90;;;;;;5061371;28;20176;-81
2021/07/03 12:20:20;;;;;;;3.57;3.27;;;25.60;99.90;;;;;;5079407;28;20177;-81
2021/07/03 12:23:04;;;;;;;2.97;2.77;;;25.80;99.90;;;;;;5079847;28;20185;-81
2021/07/03 12:25:32;;;;;;;3.53;3.23;;;25.90;99.90;;;;;;5061997;28;20180;-80
2021/07/03 12:28:02;;;;;;;4.43;4.13;;;26.10;99.90;;;;;;5061975;28;20181;-81
2021/07/03 12:30:31;;;;;;;3.67;3.33;;;26.10;99.90;;;;;;5079765;28;20177;-81
2021/07/03 12:33:05;;;;;;;3.50;3.07;;;26.10;99.90;;;;;;5078947;28;20264;-80
2021/07/03 12:35:38;;;;;;;3.30;2.97;;;26.30;99.90;;;;;;5079646;28;20229;-81
2021/07/03 12:38:04;;;;;;;3.50;2.97;;;26.20;99.90;;;;;;5079365;28;20670;-82
2021/07/03 12:40:42;;;;;;;2.87;2.67;;;26.10;99.90;;;;;;5073981;28;20698;-81
2021/07/03 12:43:09;;;;;;;2.73;2.53;;;26.20;99.90;;;;;;5079185;28;20205;-81
2021/07/03 12:45:35;;;;;;;2.63;2.43;;;26.20;99.90;;;;;;5079522;28;20230;-80
2021/07/03 12:48:08;;;;;;;3.60;3.30;;;26.30;99.90;;;;;;5080291;28;20181;-81